Time,TemperatureF,DewpointF,PressureIn,WindDirection,WindDirectionDegrees,WindSpeedMPH,WindSpeedGustMPH,Humidity,HourlyPrecipIn,Conditions,Clouds,dailyrainin,SoftwareType,DateUTC
2013-04-07 00:00:00,30.3,13.4,30.34,NNW,336,0.0,4.0,49,0.00,,,0.00,Wunderground v.1.13,2013-04-07 04:00:00,
2013-04-07 00:05:00,30.2,12.8,30.34,NNW,336,0.0,4.0,48,0.00,,,0.00,Wunderground v.1.13,2013-04-07 04:05:00,
2013-04-07 00:10:00,30.2,13.8,30.34,NNW,336,0.0,4.0,50,0.00,,,0.00,Wunderground v.1.13,2013-04-07 04:10:00,
2013-04-07 00:20:00,30.1,14.1,30.34,NNW,336,0.0,4.0,51,0.00,,,0.00,Wunderground v.1.13,2013-04-07 04:20:00,
2013-04-07 00:30:00,30.0,14.5,30.33,NNW,336,0.0,4.0,52,0.00,,,0.00,Wunderground v.1.13,2013-04-07 04:30:00,
2013-04-07 00:35:00,29.9,13.5,30.33,NNW,336,0.0,4.0,50,0.00,,,0.00,Wunderground v.1.13,2013-04-07 04:35:00,
2013-04-07 00:40:00,29.8,12.5,30.33,NNW,336,0.0,4.0,48,0.00,,,0.00,Wunderground v.1.13,2013-04-07 04:40:00,
2013-04-07 00:45:00,29.7,13.8,30.33,NNW,336,0.0,4.0,51,0.00,,,0.00,Wunderground v.1.13,2013-04-07 04:45:00,
2013-04-07 00:50:00,29.7,14.6,30.33,NNW,336,0.0,4.0,53,0.00,,,0.00,Wunderground v.1.13,2013-04-07 04:50:00,
2013-04-07 00:55:00,29.7,15.5,30.33,NNW,336,0.0,4.0,55,0.00,,,0.00,Wunderground v.1.13,2013-04-07 04:55:00,
2013-04-07 01:05:00,29.7,16.3,30.33,N/A,-737280,0.0,0.0,57,0.00,,,0.00,Wunderground v.1.13,2013-04-07 05:05:00,
2013-04-07 01:15:00,29.7,15.9,30.33,NNW,336,0.0,0.0,56,0.00,,,0.00,Wunderground v.1.13,2013-04-07 05:15:00,
2013-04-07 01:20:00,29.6,14.1,30.33,NNW,336,0.0,0.0,52,0.00,,,0.00,Wunderground v.1.13,2013-04-07 05:20:00,
2013-04-07 01:25:00,29.6,14.5,30.33,NNW,336,0.0,0.0,53,0.00,,,0.00,Wunderground v.1.13,2013-04-07 05:25:00,
2013-04-07 01:35:00,29.6,14.5,30.32,NNW,336,0.0,0.0,53,0.00,,,0.00,Wunderground v.1.13,2013-04-07 05:35:00,
2013-04-07 01:45:00,29.5,15.7,30.32,NNW,336,0.0,0.0,56,0.00,,,0.00,Wunderground v.1.13,2013-04-07 05:45:00,
2013-04-07 01:55:00,29.5,16.9,30.32,NNW,336,0.0,0.0,59,0.00,,,0.00,Wunderground v.1.13,2013-04-07 05:55:00,
2013-04-07 02:00:00,29.4,17.2,30.32,NNW,336,0.0,0.0,60,0.00,,,0.00,Wunderground v.1.13,2013-04-07 06:00:00,
2013-04-07 02:05:00,29.4,17.2,30.32,NNW,336,0.0,0.0,60,0.00,,,0.00,Wunderground v.1.13,2013-04-07 06:05:00,
2013-04-07 02:15:00,29.4,17.6,30.31,NNW,336,0.0,0.0,61,0.00,,,0.00,Wunderground v.1.13,2013-04-07 06:15:00,
2013-04-07 02:20:00,29.3,17.5,30.31,NNW,336,0.0,0.0,61,0.00,,,0.00,Wunderground v.1.13,2013-04-07 06:20:00,
2013-04-07 02:25:00,29.2,17.4,30.31,NNW,336,0.0,0.0,61,0.00,,,0.00,Wunderground v.1.13,2013-04-07 06:25:00,
2013-04-07 02:30:00,29.2,17.0,30.31,NNW,336,0.0,0.0,60,0.00,,,0.00,Wunderground v.1.13,2013-04-07 06:30:00,
2013-04-07 02:40:00,29.1,16.9,30.30,NNW,336,0.0,0.0,60,0.00,,,0.00,Wunderground v.1.13,2013-04-07 06:40:00,
2013-04-07 02:45:00,29.0,16.1,30.29,NNW,336,0.0,0.0,58,0.00,,,0.00,Wunderground v.1.13,2013-04-07 06:45:00,
2013-04-07 02:55:00,29.0,16.4,30.30,NNW,336,0.0,0.0,59,0.00,,,0.00,Wunderground v.1.13,2013-04-07 06:55:00,
2013-04-07 03:05:00,29.0,16.1,30.29,NNW,336,0.0,0.0,58,0.00,,,0.00,Wunderground v.1.13,2013-04-07 07:05:00,
2013-04-07 03:10:00,29.0,16.1,30.29,NNW,336,0.0,0.0,58,0.00,,,0.00,Wunderground v.1.13,2013-04-07 07:10:00,
2013-04-07 03:15:00,29.1,16.1,30.29,NNW,336,0.0,0.0,58,0.00,,,0.00,Wunderground v.1.13,2013-04-07 07:15:00,
2013-04-07 03:25:00,29.1,16.9,30.29,NNW,336,0.0,0.0,60,0.00,,,0.00,Wunderground v.1.13,2013-04-07 07:25:00,
2013-04-07 03:30:00,29.1,16.5,30.30,NNW,336,0.0,0.0,59,0.00,,,0.00,Wunderground v.1.13,2013-04-07 07:30:00,
2013-04-07 03:40:00,29.2,17.8,30.29,NNW,336,0.0,0.0,62,0.00,,,0.00,Wunderground v.1.13,2013-04-07 07:40:00,
2013-04-07 03:50:00,29.1,18.4,30.29,NNW,336,0.0,0.0,64,0.00,,,0.00,Wunderground v.1.13,2013-04-07 07:50:00,
2013-04-07 04:00:00,28.9,17.9,30.29,NNW,336,0.0,0.0,63,0.00,,,0.00,Wunderground v.1.13,2013-04-07 08:00:00,
2013-04-07 04:10:00,28.7,16.9,30.28,NNW,336,0.0,0.0,61,0.00,,,0.00,Wunderground v.1.13,2013-04-07 08:10:00,
2013-04-07 04:15:00,28.6,16.1,30.28,NNW,336,0.0,0.0,59,0.00,,,0.00,Wunderground v.1.13,2013-04-07 08:15:00,
2013-04-07 04:20:00,28.5,16.0,30.28,NNW,336,0.0,0.0,59,0.00,,,0.00,Wunderground v.1.13,2013-04-07 08:20:00,
2013-04-07 04:30:00,28.3,15.0,30.29,NNW,336,0.0,0.0,57,0.00,,,0.00,Wunderground v.1.13,2013-04-07 08:30:00,
2013-04-07 04:35:00,28.3,15.0,30.28,NNW,336,0.0,0.0,57,0.00,,,0.00,Wunderground v.1.13,2013-04-07 08:35:00,
2013-04-07 04:45:00,28.4,15.5,30.28,NNW,336,0.0,0.0,58,0.00,,,0.00,Wunderground v.1.13,2013-04-07 08:45:00,
2013-04-07 04:50:00,28.4,15.5,30.29,NNW,336,0.0,0.0,58,0.00,,,0.00,Wunderground v.1.13,2013-04-07 08:50:00,
2013-04-07 04:55:00,28.4,16.3,30.29,NNW,336,0.0,0.0,60,0.00,,,0.00,Wunderground v.1.13,2013-04-07 08:55:00,
2013-04-07 05:04:00,28.5,16.7,30.29,NNW,336,0.0,0.0,61,0.00,,,0.00,Wunderground v.1.13,2013-04-07 09:04:00,
2013-04-07 05:10:00,28.5,17.1,30.29,NNW,336,0.0,0.0,62,0.00,,,0.00,Wunderground v.1.13,2013-04-07 09:10:00,
2013-04-07 05:20:00,28.4,17.8,30.29,NNW,336,0.0,0.0,64,0.00,,,0.00,Wunderground v.1.13,2013-04-07 09:20:00,
2013-04-07 05:30:00,28.1,17.1,30.29,NNW,336,0.0,0.0,63,0.00,,,0.00,Wunderground v.1.13,2013-04-07 09:30:00,
2013-04-07 05:35:00,28.0,16.6,30.29,NNW,336,0.0,0.0,62,0.00,,,0.00,Wunderground v.1.13,2013-04-07 09:35:00,
2013-04-07 05:44:00,27.9,16.6,30.29,NNW,336,0.0,0.0,62,0.00,,,0.00,Wunderground v.1.13,2013-04-07 09:44:00,
2013-04-07 05:50:00,27.9,16.6,30.30,NNW,336,0.0,0.0,62,0.00,,,0.00,Wunderground v.1.13,2013-04-07 09:50:00,
2013-04-07 05:55:00,27.9,16.6,30.29,NNW,336,0.0,0.0,62,0.00,,,0.00,Wunderground v.1.13,2013-04-07 09:55:00,
2013-04-07 06:05:00,28.0,17.0,30.30,NNW,336,0.0,0.0,63,0.00,,,0.00,Wunderground v.1.13,2013-04-07 10:05:00,
2013-04-07 06:10:00,28.0,17.0,30.30,NNW,336,0.0,0.0,63,0.00,,,0.00,Wunderground v.1.13,2013-04-07 10:10:00,
2013-04-07 06:15:00,27.9,16.9,30.30,NNW,336,0.0,0.0,63,0.00,,,0.00,Wunderground v.1.13,2013-04-07 10:15:00,
2013-04-07 06:25:00,27.9,16.9,30.30,NNW,336,0.0,0.0,63,0.00,,,0.00,Wunderground v.1.13,2013-04-07 10:25:00,
2013-04-07 06:30:00,27.9,17.6,30.30,NNW,336,0.0,0.0,65,0.00,,,0.00,Wunderground v.1.13,2013-04-07 10:30:00,
2013-04-07 06:40:00,27.8,18.3,30.31,NNW,336,0.0,0.0,67,0.00,,,0.00,Wunderground v.1.13,2013-04-07 10:40:00,
2013-04-07 06:45:00,27.8,17.9,30.30,NNW,336,0.0,0.0,66,0.00,,,0.00,Wunderground v.1.13,2013-04-07 10:45:00,
2013-04-07 06:50:00,27.8,17.9,30.31,NNW,336,0.0,1.0,66,0.00,,,0.00,Wunderground v.1.13,2013-04-07 10:50:00,
2013-04-07 07:00:00,28.1,18.9,30.31,NNW,336,0.0,0.0,68,0.00,,,0.00,Wunderground v.1.13,2013-04-07 11:00:00,
2013-04-07 07:05:00,28.4,18.8,30.31,NNW,336,0.0,0.0,67,0.00,,,0.00,Wunderground v.1.13,2013-04-07 11:05:00,
2013-04-07 07:15:00,29.0,18.3,30.32,NNW,333,0.0,1.0,64,0.00,,,0.00,Wunderground v.1.13,2013-04-07 11:15:00,
2013-04-07 07:20:00,29.4,19.1,30.32,NNW,330,1.0,1.0,65,0.00,,,0.00,Wunderground v.1.13,2013-04-07 11:20:00,
2013-04-07 07:25:00,29.9,20.3,30.32,West,262,1.0,1.0,67,0.00,,,0.00,Wunderground v.1.13,2013-04-07 11:25:00,
2013-04-07 07:35:00,31.1,22.5,30.32,SW,234,1.0,1.0,70,0.00,,,0.00,Wunderground v.1.13,2013-04-07 11:35:00,
2013-04-07 07:40:00,31.6,22.9,30.33,WSW,239,2.0,2.0,70,0.00,,,0.00,Wunderground v.1.13,2013-04-07 11:40:00,
2013-04-07 07:45:00,32.1,23.4,30.32,SW,232,2.0,3.0,70,0.00,,,0.00,Wunderground v.1.13,2013-04-07 11:45:00,
2013-04-07 07:55:00,32.8,23.7,30.33,WSW,244,1.0,1.0,69,0.00,,,0.00,Wunderground v.1.13,2013-04-07 11:55:00,
2013-04-07 08:00:00,33.1,24.0,30.32,WSW,244,1.0,1.0,69,0.00,,,0.00,Wunderground v.1.13,2013-04-07 12:00:00,
2013-04-07 08:10:00,33.7,24.3,30.32,WSW,244,1.0,3.0,68,0.00,,,0.00,Wunderground v.1.13,2013-04-07 12:10:00,
2013-04-07 08:15:00,34.0,24.5,30.32,WSW,240,1.0,1.0,68,0.00,,,0.00,Wunderground v.1.13,2013-04-07 12:15:00,
2013-04-07 08:25:00,34.7,25.6,30.32,WSW,238,1.0,1.0,69,0.00,,,0.00,Wunderground v.1.13,2013-04-07 12:25:00,
2013-04-07 08:30:00,35.0,25.9,30.31,WSW,238,1.0,1.0,69,0.00,,,0.00,Wunderground v.1.13,2013-04-07 12:30:00,
2013-04-07 08:35:00,35.3,25.8,30.31,WSW,238,1.0,1.0,68,0.00,,,0.00,Wunderground v.1.13,2013-04-07 12:35:00,
2013-04-07 08:45:00,36.1,26.9,30.30,WSW,242,1.0,2.0,69,0.00,,,0.00,Wunderground v.1.13,2013-04-07 12:45:00,
2013-04-07 08:50:00,36.6,27.7,30.31,WSW,238,2.0,4.0,70,0.00,,,0.00,Wunderground v.1.13,2013-04-07 12:50:00,
2013-04-07 08:55:00,37.2,28.0,30.30,SSW,196,3.0,3.0,69,0.00,,,0.00,Wunderground v.1.13,2013-04-07 12:55:00,
2013-04-07 09:00:00,37.6,28.3,30.30,SSW,212,3.0,3.0,69,0.00,,,0.00,Wunderground v.1.13,2013-04-07 13:00:00,
2013-04-07 09:10:00,38.8,28.8,30.30,SSW,209,3.0,3.0,67,0.00,,,0.00,Wunderground v.1.13,2013-04-07 13:10:00,
2013-04-07 09:15:00,39.5,28.7,30.30,SSW,194,3.0,5.0,65,0.00,,,0.00,Wunderground v.1.13,2013-04-07 13:15:00,
2013-04-07 09:25:00,40.2,28.2,30.29,SSW,213,4.0,5.0,62,0.00,,,0.00,Wunderground v.1.13,2013-04-07 13:25:00,
2013-04-07 09:30:00,40.6,28.2,30.29,South,186,4.0,4.0,61,0.00,,,0.00,Wunderground v.1.13,2013-04-07 13:30:00,
2013-04-07 09:35:00,41.3,28.9,30.29,West,261,4.0,6.0,61,0.00,,,0.00,Wunderground v.1.13,2013-04-07 13:35:00,
2013-04-07 09:40:00,42.0,28.3,30.29,SSW,206,3.0,3.0,58,0.00,,,0.00,Wunderground v.1.13,2013-04-07 13:40:00,
2013-04-07 09:50:00,42.6,28.0,30.28,South,177,4.0,6.0,56,0.00,,,0.00,Wunderground v.1.13,2013-04-07 13:50:00,
2013-04-07 10:00:00,43.4,26.0,30.27,WSW,250,6.0,6.0,50,0.00,,,0.00,Wunderground v.1.13,2013-04-07 14:00:00,
2013-04-07 10:05:00,43.9,26.0,30.27,SW,226,5.0,8.0,49,0.00,,,0.00,Wunderground v.1.13,2013-04-07 14:05:00,
2013-04-07 10:15:00,44.3,23.7,30.27,WSW,246,6.0,9.0,44,0.00,,,0.00,Wunderground v.1.13,2013-04-07 14:15:00,
2013-04-07 10:20:00,44.4,23.8,30.27,South,185,6.0,6.0,44,0.00,,,0.00,Wunderground v.1.13,2013-04-07 14:20:00,
2013-04-07 10:30:00,44.3,22.1,30.27,SSW,196,5.0,7.0,41,0.00,,,0.00,Wunderground v.1.13,2013-04-07 14:30:00,
2013-04-07 10:40:00,44.3,22.1,30.26,SSE,160,6.0,6.0,41,0.00,,,0.00,Wunderground v.1.13,2013-04-07 14:40:00,
2013-04-07 10:45:00,44.3,22.1,30.26,SSE,168,5.0,5.0,41,0.00,,,0.00,Wunderground v.1.13,2013-04-07 14:45:00,
2013-04-07 10:50:00,44.3,22.1,30.26,SE,144,5.0,7.0,41,0.00,,,0.00,Wunderground v.1.13,2013-04-07 14:50:00,
2013-04-07 11:00:00,44.3,22.6,30.25,SSW,199,7.0,7.0,42,0.00,,,0.00,Wunderground v.1.13,2013-04-07 15:00:00,
2013-04-07 11:05:00,44.3,23.2,30.25,SSW,203,7.0,7.0,43,0.00,,,0.00,Wunderground v.1.13,2013-04-07 15:05:00,
2013-04-07 11:15:00,45.6,24.9,30.24,SW,223,6.0,6.0,44,0.00,,,0.00,Wunderground v.1.13,2013-04-07 15:15:00,
2013-04-07 11:20:00,47.0,26.7,30.23,SSE,167,6.0,6.0,45,0.00,,,0.00,Wunderground v.1.13,2013-04-07 15:20:00,
2013-04-07 11:30:00,48.9,27.9,30.23,SW,229,6.0,6.0,44,0.00,,,0.00,Wunderground v.1.13,2013-04-07 15:30:00,
2013-04-07 11:35:00,49.4,28.4,30.23,SW,216,7.0,7.0,44,0.00,,,0.00,Wunderground v.1.13,2013-04-07 15:35:00,
2013-04-07 11:45:00,50.0,28.4,30.22,SSW,202,7.0,13.0,43,0.00,,,0.00,Wunderground v.1.13,2013-04-07 15:45:00,
2013-04-07 11:50:00,49.9,27.7,30.22,SW,221,7.0,10.0,42,0.00,,,0.00,Wunderground v.1.13,2013-04-07 15:50:00,
2013-04-07 12:00:00,50.2,28.0,30.20,SSW,196,7.0,7.0,42,0.00,,,0.00,Wunderground v.1.13,2013-04-07 16:00:00,
2013-04-07 12:09:00,52.1,24.6,30.20,SE,126,8.0,8.0,34,0.00,,,0.00,Wunderground v.1.13,2013-04-07 16:09:00,
2013-04-07 12:15:00,52.9,26.0,30.20,SW,218,9.0,9.0,35,0.00,,,0.00,Wunderground v.1.13,2013-04-07 16:15:00,
2013-04-07 12:20:00,53.8,25.3,30.19,SSW,212,7.0,11.0,33,0.00,,,0.00,Wunderground v.1.13,2013-04-07 16:20:00,
2013-04-07 12:30:00,52.7,22.9,30.18,SSW,202,9.0,9.0,31,0.00,,,0.00,Wunderground v.1.13,2013-04-07 16:30:00,
2013-04-07 12:40:00,51.9,23.7,30.18,SW,232,8.0,10.0,33,0.00,,,0.00,Wunderground v.1.13,2013-04-07 16:40:00,
2013-04-07 12:45:00,52.1,23.1,30.17,SW,224,9.0,12.0,32,0.00,,,0.00,Wunderground v.1.13,2013-04-07 16:45:00,
2013-04-07 12:55:00,51.3,23.8,30.17,SW,234,9.0,15.0,34,0.00,,,0.00,Wunderground v.1.13,2013-04-07 16:55:00,
2013-04-07 13:05:00,51.2,26.4,30.16,SSE,156,7.0,7.0,38,0.00,,,0.00,Wunderground v.1.13,2013-04-07 17:05:00,
2013-04-07 13:10:00,51.9,28.3,30.16,SW,226,7.0,15.0,40,0.00,,,0.00,Wunderground v.1.13,2013-04-07 17:10:00,
2013-04-07 13:15:00,52.7,29.6,30.15,SSE,163,9.0,14.0,41,0.00,,,0.00,Wunderground v.1.13,2013-04-07 17:15:00,
2013-04-07 13:25:00,52.6,29.5,30.15,South,188,10.0,10.0,41,0.00,,,0.00,Wunderground v.1.13,2013-04-07 17:25:00,
2013-04-07 13:30:00,52.4,30.0,30.15,SSE,148,10.0,10.0,42,0.00,,,0.00,Wunderground v.1.13,2013-04-07 17:30:00,
2013-04-07 13:35:00,52.4,30.5,30.14,South,188,8.0,8.0,43,0.00,,,0.00,Wunderground v.1.13,2013-04-07 17:35:00,
2013-04-07 13:45:00,53.0,32.2,30.13,South,171,8.0,8.0,45,0.00,,,0.00,Wunderground v.1.13,2013-04-07 17:45:00,
2013-04-07 13:50:00,53.6,32.2,30.13,SSW,212,7.0,7.0,44,0.00,,,0.00,Wunderground v.1.13,2013-04-07 17:50:00,
2013-04-07 13:55:00,54.2,31.0,30.14,SW,221,7.0,7.0,41,0.00,,,0.00,Wunderground v.1.13,2013-04-07 17:55:00,
2013-04-07 14:05:00,53.6,31.0,30.13,South,180,5.0,10.0,42,0.00,,,0.00,Wunderground v.1.13,2013-04-07 18:05:00,
2013-04-07 14:10:00,53.8,30.6,30.13,SW,219,6.0,6.0,41,0.00,,,0.00,Wunderground v.1.13,2013-04-07 18:10:00,
2013-04-07 14:15:00,53.8,30.6,30.12,West,263,7.0,7.0,41,0.00,,,0.00,Wunderground v.1.13,2013-04-07 18:15:00,
2013-04-07 14:25:00,53.9,31.3,30.11,South,184,9.0,9.0,42,0.00,,,0.00,Wunderground v.1.13,2013-04-07 18:25:00,
2013-04-07 14:30:00,53.2,30.7,30.11,SSW,207,10.0,10.0,42,0.00,,,0.00,Wunderground v.1.13,2013-04-07 18:30:00,
2013-04-07 14:40:00,53.9,31.9,30.11,WSW,249,8.0,9.0,43,0.00,,,0.00,Wunderground v.1.13,2013-04-07 18:40:00,
2013-04-07 14:45:00,54.1,32.6,30.10,South,184,10.0,10.0,44,0.00,,,0.00,Wunderground v.1.13,2013-04-07 18:45:00,
2013-04-07 14:50:00,53.9,32.5,30.10,SW,233,9.0,10.0,44,0.00,,,0.00,Wunderground v.1.13,2013-04-07 18:50:00,
2013-04-07 15:00:00,53.5,32.1,30.11,SE,128,11.0,11.0,44,0.00,,,0.00,Wunderground v.1.13,2013-04-07 19:00:00,
2013-04-07 15:05:00,52.9,32.1,30.10,WSW,245,11.0,12.0,45,0.00,,,0.00,Wunderground v.1.13,2013-04-07 19:05:00,
2013-04-07 15:15:00,53.0,33.3,30.09,SW,226,7.0,7.0,47,0.00,,,0.00,Wunderground v.1.13,2013-04-07 19:15:00,
2013-04-07 15:20:00,54.1,33.8,30.09,SW,228,7.0,14.0,46,0.00,,,0.00,Wunderground v.1.13,2013-04-07 19:20:00,
2013-04-07 15:30:00,54.4,34.6,30.08,SSE,156,11.0,11.0,47,0.00,,,0.00,Wunderground v.1.13,2013-04-07 19:30:00,
2013-04-07 15:35:00,54.8,34.9,30.08,SSW,209,9.0,12.0,47,0.00,,,0.00,Wunderground v.1.13,2013-04-07 19:35:00,
2013-04-07 15:40:00,55.0,34.6,30.08,SSW,196,9.0,15.0,46,0.00,,,0.00,Wunderground v.1.13,2013-04-07 19:40:00,
2013-04-07 15:45:00,54.6,34.8,30.08,SW,221,9.0,13.0,47,0.00,,,0.00,Wunderground v.1.13,2013-04-07 19:45:00,
2013-04-07 15:55:00,54.2,34.9,30.07,South,171,9.0,9.0,48,0.00,,,0.00,Wunderground v.1.13,2013-04-07 19:55:00,
2013-04-07 16:05:00,54.1,35.3,30.07,SSW,208,9.0,10.0,49,0.00,,,0.00,Wunderground v.1.13,2013-04-07 20:05:00,
2013-04-07 16:15:00,54.9,36.1,30.06,South,172,7.0,10.0,49,0.00,,,0.00,Wunderground v.1.13,2013-04-07 20:15:00,
2013-04-07 16:20:00,54.9,35.6,30.05,SSW,200,9.0,9.0,48,0.00,,,0.00,Wunderground v.1.13,2013-04-07 20:20:00,
2013-04-07 16:30:00,53.6,34.9,30.05,SSW,200,9.0,9.0,49,0.00,,,0.00,Wunderground v.1.13,2013-04-07 20:30:00,
2013-04-07 16:35:00,53.5,35.3,30.04,South,191,9.0,9.0,50,0.00,,,0.00,Wunderground v.1.13,2013-04-07 20:35:00,
2013-04-07 16:40:00,53.6,35.4,30.04,SSW,212,9.0,15.0,50,0.00,,,0.00,Wunderground v.1.13,2013-04-07 20:40:00,
2013-04-07 16:49:00,53.6,34.9,30.04,SSW,209,10.0,14.0,49,0.00,,,0.00,Wunderground v.1.13,2013-04-07 20:49:00,
2013-04-07 16:55:00,53.3,35.1,30.04,SSE,150,10.0,15.0,50,0.00,,,0.00,Wunderground v.1.13,2013-04-07 20:55:00,
2013-04-07 17:00:00,52.9,35.2,30.02,SSW,209,11.0,11.0,51,0.00,,,0.00,Wunderground v.1.13,2013-04-07 21:00:00,
2013-04-07 17:05:00,52.8,35.2,30.02,SW,231,9.0,9.0,51,0.00,,,0.00,Wunderground v.1.13,2013-04-07 21:05:00,
2013-04-07 17:15:00,52.3,35.7,30.02,South,180,8.0,9.0,53,0.00,,,0.00,Wunderground v.1.13,2013-04-07 21:15:00,
2013-04-07 17:25:00,51.9,35.3,30.03,SSW,203,7.0,7.0,53,0.00,,,0.00,Wunderground v.1.13,2013-04-07 21:25:00,
2013-04-07 17:30:00,51.8,35.7,30.04,SSE,163,5.0,5.0,54,0.00,,,0.00,Wunderground v.1.13,2013-04-07 21:30:00,
2013-04-07 17:40:00,51.3,35.7,30.03,South,175,7.0,17.0,55,0.00,,,0.00,Wunderground v.1.13,2013-04-07 21:40:00,
2013-04-07 17:50:00,50.6,35.5,30.03,South,180,8.0,9.0,56,0.00,,,0.00,Wunderground v.1.13,2013-04-07 21:50:00,
2013-04-07 18:00:00,49.9,35.3,30.03,SSW,204,7.0,7.0,57,0.00,,,0.00,Wunderground v.1.13,2013-04-07 22:00:00,
2013-04-07 18:05:00,49.6,35.0,30.04,SSW,211,8.0,8.0,57,0.00,,,0.00,Wunderground v.1.13,2013-04-07 22:05:00,
2013-04-07 18:10:00,49.5,35.3,30.05,South,183,7.0,7.0,58,0.00,,,0.00,Wunderground v.1.13,2013-04-07 22:10:00,
2013-04-07 18:20:00,49.2,35.0,30.06,WSW,249,5.0,7.0,58,0.00,,,0.00,Wunderground v.1.13,2013-04-07 22:20:00,
2013-04-07 18:25:00,49.1,35.4,30.06,SSW,203,5.0,5.0,59,0.00,,,0.00,Wunderground v.1.13,2013-04-07 22:25:00,
2013-04-07 18:30:00,48.9,35.2,30.06,SSW,211,4.0,4.0,59,0.00,,,0.00,Wunderground v.1.13,2013-04-07 22:30:00,
2013-04-07 18:35:00,48.8,35.5,30.05,South,184,4.0,4.0,60,0.00,,,0.00,Wunderground v.1.13,2013-04-07 22:35:00,
2013-04-07 18:45:00,48.6,35.7,30.06,SSW,192,6.0,6.0,61,0.00,,,0.00,Wunderground v.1.13,2013-04-07 22:45:00,
2013-04-07 18:50:00,48.4,36.0,30.06,SW,234,5.0,7.0,62,0.00,,,0.00,Wunderground v.1.13,2013-04-07 22:50:00,
2013-04-07 18:55:00,48.3,36.3,30.06,South,190,5.0,5.0,63,0.00,,,0.00,Wunderground v.1.13,2013-04-07 22:55:00,
2013-04-07 19:05:00,48.1,36.5,30.05,SSE,168,4.0,4.0,64,0.00,,,0.00,Wunderground v.1.13,2013-04-07 23:05:00,
2013-04-07 19:15:00,47.9,37.1,30.04,SSW,210,4.0,4.0,66,0.00,,,0.00,Wunderground v.1.13,2013-04-07 23:15:00,
2013-04-07 19:25:00,47.6,37.2,30.04,SSW,197,4.0,4.0,67,0.00,,,0.00,Wunderground v.1.13,2013-04-07 23:25:00,
2013-04-07 19:35:00,47.4,37.7,30.04,South,190,3.0,6.0,69,0.00,,,0.00,Wunderground v.1.13,2013-04-07 23:35:00,
2013-04-07 19:40:00,47.3,37.6,30.05,SSW,204,4.0,5.0,69,0.00,,,0.00,Wunderground v.1.13,2013-04-07 23:40:00,
2013-04-07 19:45:00,47.2,37.9,30.05,SSW,200,5.0,5.0,70,0.00,,,0.00,Wunderground v.1.13,2013-04-07 23:45:00,
2013-04-07 19:55:00,47.0,37.7,30.05,South,177,3.0,3.0,70,0.00,,,0.00,Wunderground v.1.13,2013-04-07 23:55:00,
2013-04-07 20:00:00,46.9,38.0,30.05,SSE,166,2.0,3.0,71,0.00,,,0.00,Wunderground v.1.13,2013-04-08 00:00:00,
2013-04-07 20:10:00,46.8,37.9,30.05,South,177,2.0,3.0,71,0.00,,,0.00,Wunderground v.1.13,2013-04-08 00:10:00,
2013-04-07 20:15:00,46.7,38.1,30.05,South,173,2.0,2.0,72,0.00,,,0.00,Wunderground v.1.13,2013-04-08 00:15:00,
2013-04-07 20:20:00,46.7,38.1,30.05,SSE,156,2.0,2.0,72,0.00,,,0.00,Wunderground v.1.13,2013-04-08 00:20:00,
2013-04-07 20:30:00,46.5,38.3,30.05,SSW,203,4.0,4.0,73,0.00,,,0.00,Wunderground v.1.13,2013-04-08 00:30:00,
2013-04-07 20:35:00,46.4,38.2,30.05,South,178,3.0,3.0,73,0.00,,,0.00,Wunderground v.1.13,2013-04-08 00:35:00,
2013-04-07 20:45:00,46.3,38.1,30.05,South,183,3.0,4.0,73,0.00,,,0.00,Wunderground v.1.13,2013-04-08 00:45:00,
2013-04-07 20:50:00,46.2,38.4,30.05,South,187,4.0,4.0,74,0.00,,,0.00,Wunderground v.1.13,2013-04-08 00:50:00,
2013-04-07 20:59:00,46.0,38.2,30.05,South,169,2.0,4.0,74,0.00,,,0.00,Wunderground v.1.13,2013-04-08 00:59:00,
2013-04-07 21:05:00,45.9,38.4,30.05,SE,124,3.0,3.0,75,0.00,,,0.00,Wunderground v.1.13,2013-04-08 01:05:00,
2013-04-07 21:10:00,45.8,38.3,30.05,SW,225,3.0,5.0,75,0.00,,,0.00,Wunderground v.1.13,2013-04-08 01:10:00,
2013-04-07 21:20:00,45.5,38.4,30.04,South,190,3.0,3.0,76,0.00,,,0.00,Wunderground v.1.13,2013-04-08 01:20:00,
2013-04-07 21:25:00,45.4,38.3,30.04,SSW,209,3.0,4.0,76,0.00,,,0.00,Wunderground v.1.13,2013-04-08 01:25:00,
2013-04-07 21:30:00,45.3,38.2,30.04,SSW,205,3.0,3.0,76,0.00,,,0.00,Wunderground v.1.13,2013-04-08 01:30:00,
2013-04-07 21:40:00,45.1,38.3,30.05,South,174,2.0,2.0,77,0.00,,,0.00,Wunderground v.1.13,2013-04-08 01:40:00,
2013-04-07 21:45:00,45.1,38.3,30.04,South,191,3.0,3.0,77,0.00,,,0.00,Wunderground v.1.13,2013-04-08 01:45:00,
2013-04-07 21:50:00,45.0,38.2,30.04,SSW,211,3.0,3.0,77,0.00,,,0.00,Wunderground v.1.13,2013-04-08 01:50:00,
2013-04-07 21:55:00,44.9,38.5,30.04,SW,218,3.0,5.0,78,0.00,,,0.00,Wunderground v.1.13,2013-04-08 01:55:00,
2013-04-07 22:00:00,44.8,38.4,30.04,SW,215,3.0,3.0,78,0.00,,,0.00,Wunderground v.1.13,2013-04-08 02:00:00,
2013-04-07 22:10:00,44.7,38.3,30.04,SW,216,3.0,3.0,78,0.00,,,0.00,Wunderground v.1.13,2013-04-08 02:10:00,
2013-04-07 22:15:00,44.7,38.3,30.03,SW,230,3.0,3.0,78,0.00,,,0.00,Wunderground v.1.13,2013-04-08 02:15:00,
2013-04-07 22:20:00,44.6,38.5,30.04,SW,225,3.0,3.0,79,0.00,,,0.00,Wunderground v.1.13,2013-04-08 02:20:00,
2013-04-07 22:29:00,44.5,38.4,30.03,SSW,196,3.0,3.0,79,0.00,,,0.00,Wunderground v.1.13,2013-04-08 02:29:00,
2013-04-07 22:35:00,44.5,38.4,30.03,SW,227,3.0,3.0,79,0.00,,,0.00,Wunderground v.1.13,2013-04-08 02:35:00,
2013-04-07 22:45:00,44.5,38.7,30.03,SW,232,3.0,5.0,80,0.00,,,0.00,Wunderground v.1.13,2013-04-08 02:45:00,
2013-04-07 22:50:00,44.5,38.7,30.03,SW,219,2.0,3.0,80,0.00,,,0.00,Wunderground v.1.13,2013-04-08 02:50:00,
2013-04-07 23:05:00,44.5,39.0,30.02,SSW,207,4.0,4.0,81,0.00,,,0.00,Wunderground v.1.13,2013-04-08 03:05:00,
2013-04-07 23:15:00,44.5,39.0,30.02,WSW,240,3.0,3.0,81,0.00,,,0.00,Wunderground v.1.13,2013-04-08 03:15:00,
2013-04-07 23:20:00,44.5,39.3,30.02,SSW,195,4.0,4.0,82,0.00,,,0.00,Wunderground v.1.13,2013-04-08 03:20:00,
2013-04-07 23:25:00,44.6,39.8,30.02,SSW,209,5.0,5.0,83,0.00,,,0.00,Wunderground v.1.13,2013-04-08 03:25:00,
2013-04-07 23:35:00,44.7,39.9,30.02,SW,219,5.0,5.0,83,0.00,,,0.00,Wunderground v.1.13,2013-04-08 03:35:00,
2013-04-07 23:45:00,44.8,40.0,30.02,WSW,240,4.0,11.0,83,0.00,,,0.00,Wunderground v.1.13,2013-04-08 03:45:00,
2013-04-07 23:50:00,44.8,40.0,30.02,SW,236,4.0,4.0,83,0.00,,,0.00,Wunderground v.1.13,2013-04-08 03:50:00,